createdAt,value
2022-08-05T00:00:33.294Z,0.00
2022-08-05T00:01:36.184Z,0.00
2022-08-05T00:02:33.257Z,0.00
2022-08-05T00:03:32.196Z,0.00
2022-08-05T00:04:32.182Z,0.00
2022-08-05T00:06:06.449Z,0.00
2022-08-05T00:06:36.035Z,0.00
2022-08-05T00:08:00.351Z,0.00
2022-08-05T00:08:35.519Z,0.00
2022-08-05T00:09:32.134Z,0.00
2022-08-05T00:10:32.122Z,0.00
2022-08-05T00:11:35.012Z,0.00
2022-08-05T00:12:33.110Z,0.00
2022-08-05T00:13:39.428Z,0.00
2022-08-05T00:14:33.083Z,0.00
2022-08-05T00:15:55.132Z,0.00
2022-08-05T00:16:36.304Z,0.00
2022-08-05T00:17:33.426Z,0.00
2022-08-05T00:18:32.053Z,0.00
2022-08-05T00:19:33.638Z,0.00
2022-08-05T00:20:33.014Z,0.00
2022-08-05T00:21:35.619Z,0.00
2022-08-05T00:22:31.992Z,0.00
2022-08-05T00:23:46.288Z,0.00
2022-08-05T00:24:32.990Z,0.00
2022-08-05T00:25:41.581Z,0.00
2022-08-05T00:26:32.943Z,0.00
2022-08-05T00:27:36.208Z,0.00
2022-08-05T00:28:31.927Z,0.00
2022-08-05T00:29:37.708Z,0.00
2022-08-05T00:30:32.922Z,0.00
2022-08-05T00:31:54.223Z,0.00
2022-08-05T00:32:32.875Z,0.00
2022-08-05T00:34:53.307Z,0.00
2022-08-05T00:34:54.815Z,0.00
2022-08-05T00:35:33.420Z,0.00
2022-08-05T00:37:11.367Z,0.00
2022-08-05T00:37:35.474Z,0.00
2022-08-05T00:38:33.883Z,0.00
2022-08-05T00:39:37.092Z,0.00
2022-08-05T00:40:32.800Z,0.00
2022-08-05T00:41:54.977Z,0.00
2022-08-05T00:42:32.911Z,0.00
2022-08-05T00:43:47.336Z,0.00
2022-08-05T00:44:32.744Z,0.00
2022-08-05T00:45:43.075Z,0.00
2022-08-05T00:46:36.962Z,0.00
2022-08-05T00:47:56.285Z,0.00
2022-08-05T00:48:32.730Z,0.00
2022-08-05T00:49:51.066Z,0.00
2022-08-05T00:50:32.677Z,0.00
2022-08-05T00:51:50.654Z,0.00
2022-08-05T00:52:32.663Z,0.00
2022-08-05T00:53:45.454Z,0.00
2022-08-05T00:54:32.660Z,0.00
2022-08-05T00:55:34.109Z,0.00
2022-08-05T00:56:32.620Z,0.00
2022-08-05T00:57:38.324Z,0.00
2022-08-05T00:58:32.592Z,0.00
2022-08-05T00:59:42.023Z,0.00
2022-08-05T01:00:32.644Z,0.00
2022-08-05T01:01:42.447Z,0.00
2022-08-05T01:02:32.555Z,0.00
2022-08-05T01:03:33.473Z,0.00
2022-08-05T01:04:31.535Z,0.00
2022-08-05T01:05:31.521Z,0.00
2022-08-05T01:06:32.698Z,0.00
2022-08-05T01:07:31.968Z,0.00
2022-08-05T01:08:43.183Z,0.00
2022-08-05T01:09:32.469Z,0.00
2022-08-05T01:10:31.468Z,0.00
2022-08-05T01:11:36.682Z,0.00
2022-08-05T01:12:32.464Z,0.00
2022-08-05T01:13:57.677Z,0.00
2022-08-05T01:14:32.423Z,0.00
2022-08-05T01:15:36.077Z,0.00
2022-08-05T01:16:32.394Z,0.00
2022-08-05T01:17:31.384Z,0.00
2022-08-05T01:18:32.394Z,0.00
2022-08-05T01:19:56.107Z,0.00
2022-08-05T01:20:32.349Z,0.00
2022-08-05T01:21:38.243Z,0.00
2022-08-05T01:22:32.329Z,0.00
2022-08-05T01:23:34.551Z,0.00
2022-08-05T01:24:31.325Z,0.00
2022-08-05T01:25:39.595Z,0.00
2022-08-05T01:26:32.290Z,0.00
2022-08-05T01:27:33.052Z,0.00
2022-08-05T01:28:31.269Z,0.00
2022-08-05T01:29:31.250Z,0.00
2022-08-05T01:30:33.639Z,0.00
2022-08-05T01:31:31.249Z,0.00
2022-08-05T01:32:31.218Z,0.00
2022-08-05T01:33:35.430Z,0.00
2022-08-05T01:34:31.196Z,0.00
2022-08-05T01:35:52.038Z,0.00
2022-08-05T01:36:32.190Z,0.00
2022-08-05T01:37:31.578Z,0.00
2022-08-05T01:38:31.188Z,0.00
2022-08-05T01:39:46.666Z,0.00
2022-08-05T01:40:32.130Z,0.00
2022-08-05T01:41:31.120Z,0.00
2022-08-05T01:42:31.132Z,0.00
2022-08-05T01:43:31.096Z,0.00
2022-08-05T01:44:34.496Z,0.00
2022-08-05T01:45:35.035Z,0.00
2022-08-05T01:46:42.886Z,0.00
2022-08-05T01:47:39.052Z,0.00
2022-08-05T01:48:32.044Z,0.00
2022-08-05T01:50:00.564Z,0.00
2022-08-05T01:50:32.020Z,0.00
2022-08-05T01:51:31.010Z,0.00
2022-08-05T01:52:31.018Z,0.00
2022-08-05T01:53:57.791Z,0.00
2022-08-05T01:54:31.976Z,0.00
2022-08-05T01:55:30.966Z,0.00
2022-08-05T01:58:10.132Z,0.00
2022-08-05T01:58:11.869Z,0.00
2022-08-05T01:58:44.833Z,0.00
2022-08-05T01:59:31.928Z,0.00
2022-08-05T02:00:31.133Z,0.00
2022-08-05T02:01:37.937Z,0.00
2022-08-05T02:02:31.967Z,0.00
2022-08-05T02:03:31.805Z,0.00
2022-08-05T02:04:30.871Z,0.00
2022-08-05T02:05:30.869Z,0.00
2022-08-05T02:06:37.380Z,0.00
2022-08-05T02:07:31.831Z,0.00
2022-08-05T02:08:31.645Z,0.00
2022-08-05T02:09:30.811Z,0.00
2022-08-05T02:10:30.831Z,0.00
2022-08-05T02:11:32.846Z,0.00
2022-08-05T02:12:32.845Z,0.00
2022-08-05T02:13:36.421Z,0.00
2022-08-05T02:14:31.938Z,0.00
2022-08-05T02:15:33.571Z,0.00
2022-08-05T02:16:30.740Z,0.00
2022-08-05T02:18:31.017Z,0.00
2022-08-05T02:18:35.245Z,0.00
2022-08-05T02:19:34.188Z,0.00
2022-08-05T02:20:30.705Z,0.00
2022-08-05T02:21:31.703Z,0.00
2022-08-05T02:22:31.664Z,0.00
2022-08-05T02:23:33.754Z,0.00
2022-08-05T02:24:31.651Z,0.00
2022-08-05T02:25:33.412Z,0.00
2022-08-05T02:26:31.627Z,0.00
2022-08-05T02:27:59.303Z,0.00
2022-08-05T02:28:36.414Z,0.00
2022-08-05T02:29:59.674Z,0.00
2022-08-05T02:30:31.595Z,0.00
2022-08-05T02:31:35.035Z,0.00
2022-08-05T02:32:31.494Z,0.00
2022-08-05T02:33:36.250Z,0.00
2022-08-05T02:34:31.528Z,0.00
2022-08-05T02:35:33.283Z,0.00
2022-08-05T02:36:31.853Z,0.00
2022-08-05T02:37:32.038Z,0.00
2022-08-05T02:38:35.066Z,0.00
2022-08-05T02:39:31.592Z,0.00
2022-08-05T02:40:30.487Z,0.00
2022-08-05T02:41:42.937Z,0.00
2022-08-05T02:42:36.008Z,0.00
2022-08-05T02:43:30.435Z,0.00
2022-08-05T02:44:30.421Z,0.00
2022-08-05T02:45:52.706Z,0.00
2022-08-05T02:46:31.405Z,0.00
2022-08-05T02:47:36.556Z,0.00
2022-08-05T02:48:31.379Z,0.00
2022-08-05T02:49:36.624Z,0.00
2022-08-05T02:50:31.396Z,0.00
2022-08-05T02:52:03.139Z,0.00
2022-08-05T02:52:31.325Z,0.00
2022-08-05T02:53:39.628Z,0.00
2022-08-05T02:54:36.127Z,0.00
2022-08-05T02:55:53.982Z,0.00
2022-08-05T02:56:31.296Z,0.00
2022-08-05T02:58:10.567Z,0.00
2022-08-05T02:58:31.265Z,0.00
2022-08-05T02:59:30.256Z,0.00
2022-08-05T03:00:31.243Z,0.00
2022-08-05T03:01:30.330Z,0.00
2022-08-05T03:02:30.215Z,0.00
2022-08-05T03:03:33.720Z,0.00
2022-08-05T03:04:30.193Z,0.00
2022-08-05T03:06:55.958Z,0.00
2022-08-05T03:06:56.393Z,0.00
2022-08-05T03:07:59.285Z,0.00
2022-08-05T03:08:31.152Z,0.00
2022-08-05T03:09:38.214Z,0.00
2022-08-05T03:10:31.129Z,0.00
2022-08-05T03:11:56.372Z,0.00
2022-08-05T03:12:31.103Z,0.00
2022-08-05T03:13:52.069Z,0.00
2022-08-05T03:14:31.080Z,0.00
2022-08-05T03:15:30.078Z,0.00
2022-08-05T03:16:30.065Z,0.00
2022-08-05T03:17:30.061Z,0.00
2022-08-05T03:18:30.745Z,0.00
2022-08-05T03:19:33.763Z,0.00
2022-08-05T03:20:31.012Z,0.00
2022-08-05T03:21:33.182Z,0.00
2022-08-05T03:22:32.257Z,0.00
2022-08-05T03:23:29.987Z,0.00
2022-08-05T03:24:30.798Z,0.00
2022-08-05T03:25:59.746Z,0.00
2022-08-05T03:26:32.409Z,0.00
2022-08-05T03:27:39.509Z,0.00
2022-08-05T03:28:30.929Z,0.00
2022-08-05T03:29:45.535Z,0.00
2022-08-05T03:30:34.255Z,0.00
2022-08-05T03:31:56.912Z,0.00
2022-08-05T03:32:31.428Z,0.00
2022-08-05T03:33:42.173Z,0.00
2022-08-05T03:34:30.855Z,0.00
2022-08-05T03:35:29.848Z,0.00
2022-08-05T03:36:30.374Z,0.00
2022-08-05T03:37:29.835Z,0.00
2022-08-05T03:38:33.405Z,0.00
2022-08-05T03:39:34.128Z,0.00
2022-08-05T03:40:32.342Z,0.00
2022-08-05T03:41:33.312Z,0.00
2022-08-05T03:42:32.148Z,0.00
2022-08-05T03:44:08.996Z,0.00
2022-08-05T03:44:30.754Z,0.00
2022-08-05T03:45:29.739Z,0.00
2022-08-05T03:46:32.622Z,0.00
2022-08-05T03:47:35.116Z,0.00
2022-08-05T03:48:30.697Z,0.00
2022-08-05T03:49:31.053Z,0.00
2022-08-05T03:50:30.676Z,0.00
2022-08-05T03:52:36.629Z,0.00
2022-08-05T03:52:48.553Z,0.00
2022-08-05T03:55:51.364Z,0.00
2022-08-05T03:55:53.957Z,0.00
2022-08-05T03:56:05.427Z,0.00
2022-08-05T03:56:34.801Z,0.00
2022-08-05T03:57:41.641Z,0.00
2022-08-05T03:58:30.585Z,0.00
2022-08-05T03:59:47.682Z,0.00
2022-08-05T04:00:30.680Z,0.00
2022-08-05T04:01:32.311Z,0.00
2022-08-05T04:02:37.512Z,0.00
2022-08-05T04:03:30.531Z,0.00
2022-08-05T04:04:29.530Z,0.00
2022-08-05T04:05:33.332Z,0.00
2022-08-05T04:06:29.503Z,0.00
2022-08-05T04:07:29.509Z,0.00
2022-08-05T04:08:35.088Z,0.00
2022-08-05T04:09:30.470Z,0.00
2022-08-05T04:10:37.587Z,0.00
2022-08-05T04:11:47.602Z,0.00
2022-08-05T04:12:30.452Z,0.00
2022-08-05T04:13:50.170Z,0.00
2022-08-05T04:14:31.138Z,0.00
2022-08-05T04:15:33.141Z,0.00
2022-08-05T04:16:32.482Z,0.00
2022-08-05T04:17:55.483Z,0.00
2022-08-05T04:18:30.377Z,0.00
2022-08-05T04:19:29.375Z,0.00
2022-08-05T04:20:29.348Z,0.00
2022-08-05T04:22:10.164Z,0.00
2022-08-05T04:22:30.348Z,0.00
2022-08-05T04:23:57.389Z,0.00
2022-08-05T04:24:30.296Z,0.00
2022-08-05T04:25:57.805Z,0.00
2022-08-05T04:26:32.594Z,0.00
2022-08-05T04:27:41.769Z,0.00
2022-08-05T04:28:30.828Z,0.00
2022-08-05T04:29:29.246Z,0.00
2022-08-05T04:30:29.232Z,0.00
2022-08-05T04:31:38.473Z,0.00
2022-08-05T04:32:31.250Z,0.00
2022-08-05T04:33:54.707Z,0.00
2022-08-05T04:34:33.892Z,0.00
2022-08-05T04:36:10.962Z,0.00
2022-08-05T04:36:46.610Z,0.00
2022-08-05T04:38:02.385Z,0.00
2022-08-05T04:38:39.840Z,0.00
2022-08-05T04:39:30.203Z,0.00
2022-08-05T04:40:29.123Z,0.00
2022-08-05T04:41:36.919Z,0.00
2022-08-05T04:42:30.109Z,0.00
2022-08-05T04:43:29.092Z,5.62
2022-08-05T04:44:30.618Z,5.62
2022-08-05T04:45:48.408Z,5.62
2022-08-05T04:46:30.047Z,5.62
2022-08-05T04:47:29.050Z,5.62
2022-08-05T04:48:30.032Z,5.62
2022-08-05T04:49:39.260Z,5.62
2022-08-05T04:50:34.525Z,5.62
2022-08-05T04:51:30.391Z,5.62
2022-08-05T04:52:29.002Z,5.62
2022-08-05T04:53:28.976Z,5.62
2022-08-05T04:54:28.969Z,5.62
2022-08-05T04:56:14.768Z,5.62
2022-08-05T04:56:34.987Z,5.62
2022-08-05T04:57:29.941Z,5.62
2022-08-05T04:58:29.911Z,5.62
2022-08-05T04:59:36.725Z,5.62
2022-08-05T05:00:29.898Z,5.62
2022-08-05T05:01:33.539Z,0.00
2022-08-05T05:02:41.297Z,0.00
2022-08-05T05:03:41.949Z,0.00
2022-08-05T05:04:29.850Z,0.00
2022-08-05T05:05:29.352Z,0.00
2022-08-05T05:06:39.995Z,5.62
2022-08-05T05:07:32.123Z,5.62
2022-08-05T05:08:30.062Z,5.62
2022-08-05T05:09:28.854Z,5.62
2022-08-05T05:10:29.652Z,5.62
2022-08-05T05:11:42.179Z,5.62
2022-08-05T05:12:29.795Z,5.62
2022-08-05T05:13:32.452Z,0.00
2022-08-05T05:14:31.860Z,0.00
2022-08-05T05:15:56.369Z,0.00
2022-08-05T05:16:30.427Z,0.00
2022-08-05T05:17:56.779Z,0.00
2022-08-05T05:18:33.391Z,5.62
2022-08-05T05:19:37.264Z,5.62
2022-08-05T05:20:29.664Z,5.62
2022-08-05T05:21:28.654Z,5.62
2022-08-05T05:22:28.643Z,5.62
2022-08-05T05:24:02.286Z,5.62
2022-08-05T05:24:56.222Z,11.25
2022-08-05T05:25:32.827Z,11.25
2022-08-05T05:26:32.983Z,11.25
2022-08-05T05:27:41.162Z,11.25
2022-08-05T05:28:29.595Z,11.25
2022-08-05T05:30:03.571Z,11.25
2022-08-05T05:30:33.416Z,11.25
2022-08-05T05:31:35.967Z,11.25
2022-08-05T05:32:28.538Z,5.62
2022-08-05T05:33:28.536Z,5.62
2022-08-05T05:34:29.508Z,11.25
2022-08-05T05:35:29.219Z,11.25
2022-08-05T05:36:29.900Z,11.25
2022-08-05T05:37:37.286Z,11.25
2022-08-05T05:38:29.485Z,11.25
2022-08-05T05:39:34.447Z,11.25
2022-08-05T05:40:29.440Z,16.88
2022-08-05T05:41:40.915Z,16.88
2022-08-05T05:42:29.466Z,16.88
2022-08-05T05:43:56.918Z,22.50
2022-08-05T05:44:37.749Z,22.50
2022-08-05T05:45:29.385Z,28.12
2022-08-05T05:46:28.382Z,28.12
2022-08-05T05:47:30.604Z,22.50
2022-08-05T05:48:29.373Z,22.50
2022-08-05T05:49:28.350Z,22.50
2022-08-05T05:50:28.340Z,28.12
2022-08-05T05:51:28.348Z,28.12
2022-08-05T05:52:32.801Z,33.75
2022-08-05T05:53:29.317Z,33.75
2022-08-05T05:54:50.506Z,33.75
2022-08-05T05:55:52.125Z,33.75
2022-08-05T05:56:33.047Z,39.38
2022-08-05T05:57:52.360Z,39.38
2022-08-05T05:58:31.587Z,39.38
2022-08-05T05:59:28.731Z,39.38
2022-08-05T06:00:31.788Z,39.38
2022-08-05T06:01:36.939Z,39.38
2022-08-05T06:02:32.539Z,33.75
2022-08-05T06:03:54.056Z,33.75
2022-08-05T06:04:29.212Z,39.38
2022-08-05T06:05:28.161Z,33.75
2022-08-05T06:06:31.101Z,33.75
2022-08-05T06:07:41.622Z,33.75
2022-08-05T06:08:31.839Z,28.12
2022-08-05T06:09:52.560Z,22.50
2022-08-05T06:10:29.447Z,22.50
2022-08-05T06:11:29.211Z,22.50
2022-08-05T06:12:28.082Z,22.50
2022-08-05T06:13:28.088Z,22.50
2022-08-05T06:14:29.190Z,28.12
2022-08-05T06:16:29.030Z,28.12
2022-08-05T06:16:36.889Z,33.75
2022-08-05T06:17:53.360Z,39.38
2022-08-05T06:18:31.451Z,39.38
2022-08-05T06:19:34.478Z,33.75
2022-08-05T06:20:28.998Z,28.12
2022-08-05T06:21:35.967Z,22.50
2022-08-05T06:22:28.970Z,22.50
2022-08-05T06:23:27.970Z,28.12
2022-08-05T06:24:28.946Z,22.50
2022-08-05T06:26:13.927Z,22.50
2022-08-05T06:26:31.898Z,16.88
2022-08-05T06:28:12.550Z,16.88
2022-08-05T06:28:28.938Z,16.88
2022-08-05T06:29:48.863Z,16.88
2022-08-05T06:30:28.879Z,16.88
2022-08-05T06:31:30.637Z,22.50
2022-08-05T06:32:29.229Z,22.50
2022-08-05T06:34:06.110Z,22.50
2022-08-05T06:34:28.834Z,22.50
2022-08-05T06:36:03.694Z,22.50
2022-08-05T06:36:28.812Z,28.12
2022-08-05T06:37:39.396Z,28.12
2022-08-05T06:38:35.908Z,28.12
2022-08-05T06:39:28.848Z,22.50
2022-08-05T06:40:32.621Z,22.50
2022-08-05T06:41:28.762Z,22.50
2022-08-05T06:42:28.745Z,22.50
2022-08-05T06:43:51.527Z,22.50
2022-08-05T06:44:28.732Z,22.50
2022-08-05T06:46:02.929Z,28.12
2022-08-05T06:46:30.240Z,33.75
2022-08-05T06:48:11.418Z,33.75
2022-08-05T06:48:52.731Z,33.75
2022-08-05T06:50:00.193Z,33.75
2022-08-05T06:50:28.656Z,33.75
2022-08-05T06:51:29.304Z,33.75
2022-08-05T06:52:37.712Z,28.12
2022-08-05T06:53:29.318Z,33.75
2022-08-05T06:54:27.618Z,45.00
2022-08-05T06:55:27.606Z,50.62
2022-08-05T06:56:27.606Z,33.75
2022-08-05T06:57:57.786Z,22.50
2022-08-05T06:58:29.946Z,22.50
2022-08-05T06:59:28.553Z,22.50
2022-08-05T07:00:29.583Z,16.88
2022-08-05T07:01:32.774Z,16.88
2022-08-05T07:02:28.521Z,16.88
2022-08-05T07:03:32.525Z,22.50
2022-08-05T07:04:28.507Z,16.88
2022-08-05T07:05:36.922Z,16.88
2022-08-05T07:06:28.532Z,16.88
2022-08-05T07:07:35.385Z,16.88
2022-08-05T07:08:28.472Z,16.88
2022-08-05T07:09:27.453Z,22.50
2022-08-05T07:10:32.337Z,22.50
2022-08-05T07:11:28.098Z,33.75
2022-08-05T07:12:27.526Z,33.75
2022-08-05T07:13:57.241Z,33.75
2022-08-05T07:14:29.729Z,33.75
2022-08-05T07:15:34.538Z,28.12
2022-08-05T07:17:58.981Z,28.12
2022-08-05T07:18:00.303Z,33.75
2022-08-05T07:18:30.022Z,28.12
2022-08-05T07:19:57.978Z,28.12
2022-08-05T07:20:33.862Z,28.12
2022-08-05T07:21:28.307Z,33.75
2022-08-05T07:22:30.191Z,28.12
2022-08-05T07:23:29.690Z,22.50
2022-08-05T07:24:28.717Z,16.88
2022-08-05T07:25:55.102Z,16.88
2022-08-05T07:26:28.255Z,16.88
2022-08-05T07:27:58.047Z,16.88
2022-08-05T07:28:28.243Z,22.50
2022-08-05T07:30:23.864Z,22.50
2022-08-05T07:30:32.694Z,22.50
2022-08-05T07:31:53.923Z,22.50
2022-08-05T07:32:28.186Z,22.50
2022-08-05T07:33:36.762Z,22.50
2022-08-05T07:34:28.773Z,22.50
2022-08-05T07:36:03.258Z,22.50
2022-08-05T07:36:28.151Z,22.50
2022-08-05T07:37:29.196Z,22.50
2022-08-05T07:38:33.357Z,22.50
2022-08-05T07:40:04.716Z,22.50
2022-08-05T07:40:33.123Z,28.12
2022-08-05T07:42:08.331Z,28.12
2022-08-05T07:42:33.691Z,28.12
2022-08-05T07:43:28.086Z,28.12
2022-08-05T07:44:27.053Z,33.75
2022-08-05T07:45:56.668Z,39.38
2022-08-05T07:46:28.037Z,33.75
2022-08-05T07:47:27.023Z,33.75
2022-08-05T07:49:02.475Z,50.62
2022-08-05T07:49:27.997Z,45.00
2022-08-05T07:50:32.366Z,39.38
2022-08-05T07:51:37.044Z,33.75
2022-08-05T07:52:27.977Z,28.12
2022-08-05T07:53:26.969Z,33.75
2022-08-05T07:54:31.718Z,33.75
2022-08-05T07:56:04.894Z,33.75
2022-08-05T07:57:01.413Z,28.12
2022-08-05T07:57:51.383Z,22.50
2022-08-05T07:58:57.756Z,22.50
2022-08-05T07:59:38.840Z,22.50
2022-08-05T08:00:27.880Z,22.50
2022-08-05T08:01:26.931Z,22.50
2022-08-05T08:02:31.255Z,28.12
2022-08-05T08:03:44.535Z,33.75
2022-08-05T08:04:37.386Z,28.12
2022-08-05T08:05:27.838Z,22.50
2022-08-05T08:06:28.313Z,28.12
2022-08-05T08:07:28.418Z,28.12
2022-08-05T08:08:26.800Z,33.75
2022-08-05T08:09:26.781Z,28.12
2022-08-05T08:10:26.774Z,16.88
2022-08-05T08:11:27.803Z,22.50
2022-08-05T08:12:48.866Z,33.75
2022-08-05T08:13:28.958Z,33.75
2022-08-05T08:14:26.724Z,28.12
2022-08-05T08:16:34.007Z,28.12
2022-08-05T08:16:34.667Z,28.12
2022-08-05T08:17:27.800Z,39.38
2022-08-05T08:18:26.695Z,45.00
2022-08-05T08:20:43.057Z,45.00
2022-08-05T08:20:44.175Z,39.38
2022-08-05T08:21:27.645Z,22.50
2022-08-05T08:22:26.902Z,22.50
2022-08-05T08:24:03.315Z,11.25
2022-08-05T08:24:51.498Z,11.25
2022-08-05T08:25:59.831Z,11.25
2022-08-05T08:26:30.000Z,11.25
2022-08-05T08:27:35.611Z,11.25
2022-08-05T08:28:36.547Z,11.25
2022-08-05T08:30:04.102Z,16.88
2022-08-05T08:30:37.662Z,22.50
2022-08-05T08:31:27.531Z,33.75
2022-08-05T08:32:28.151Z,33.75
2022-08-05T08:33:27.283Z,28.12
2022-08-05T08:34:30.694Z,28.12
2022-08-05T08:35:27.481Z,28.12
2022-08-05T08:36:38.451Z,22.50
2022-08-05T08:37:27.928Z,28.12
2022-08-05T08:38:35.631Z,22.50
2022-08-05T08:39:27.485Z,22.50
2022-08-05T08:40:26.439Z,22.50
2022-08-05T08:41:51.899Z,28.12
2022-08-05T08:42:50.609Z,28.12
2022-08-05T08:45:18.193Z,22.50
2022-08-05T08:45:18.291Z,22.50
2022-08-05T08:45:29.735Z,22.50
2022-08-05T08:46:26.368Z,16.88
2022-08-05T08:48:06.775Z,22.50
2022-08-05T08:48:43.025Z,16.88
2022-08-05T08:50:22.627Z,11.25
2022-08-05T08:50:51.973Z,16.88
2022-08-05T08:52:04.105Z,16.88
2022-08-05T08:52:27.517Z,11.25
2022-08-05T08:53:26.294Z,11.25
2022-08-05T08:54:27.524Z,11.25
2022-08-05T08:56:02.191Z,16.88
2022-08-05T08:56:27.339Z,16.88
2022-08-05T08:57:42.111Z,22.50
2022-08-05T08:58:37.562Z,22.50
2022-08-05T08:59:27.645Z,22.50
2022-08-05T09:00:27.311Z,22.50
2022-08-05T09:01:26.224Z,16.88
2022-08-05T09:02:26.883Z,16.88
2022-08-05T09:03:26.185Z,16.88
2022-08-05T09:04:30.649Z,16.88
2022-08-05T09:05:38.395Z,16.88
2022-08-05T09:06:29.156Z,22.50
2022-08-05T09:07:28.752Z,16.88
2022-08-05T09:08:26.557Z,16.88
2022-08-05T09:09:34.574Z,22.50
2022-08-05T09:10:27.803Z,16.88
2022-08-05T09:11:51.835Z,16.88
2022-08-05T09:12:27.898Z,11.25
2022-08-05T09:13:31.792Z,11.25
2022-08-05T09:14:56.411Z,16.88
2022-08-05T09:15:27.041Z,16.88
2022-08-05T09:16:26.962Z,16.88
2022-08-05T09:17:42.323Z,16.88
2022-08-05T09:18:27.019Z,22.50
2022-08-05T09:19:27.864Z,22.50
2022-08-05T09:20:37.477Z,28.12
2022-08-05T09:22:23.072Z,28.12
2022-08-05T09:22:32.151Z,28.12
2022-08-05T09:23:27.201Z,28.12
2022-08-05T09:24:25.932Z,28.12
2022-08-05T09:26:00.857Z,33.75
2022-08-05T09:26:32.322Z,39.38
2022-08-05T09:28:03.779Z,28.12
2022-08-05T09:28:32.246Z,28.12
2022-08-05T09:29:30.938Z,39.38
2022-08-05T09:30:25.870Z,56.25
2022-08-05T09:32:39.147Z,90.00
2022-08-05T09:32:41.756Z,95.62
2022-08-05T09:33:35.209Z,90.00
2022-08-05T09:34:26.824Z,90.00
2022-08-05T09:35:26.612Z,67.50
2022-08-05T09:36:27.459Z,67.50
2022-08-05T09:38:16.694Z,67.50
2022-08-05T09:38:29.467Z,67.50
2022-08-05T09:39:41.550Z,73.12
2022-08-05T09:40:26.795Z,101.25
2022-08-05T09:41:25.741Z,90.00
2022-08-05T09:42:28.477Z,90.00
2022-08-05T09:43:25.739Z,101.25
2022-08-05T09:44:25.714Z,95.62
2022-08-05T09:46:06.414Z,67.50
2022-08-05T09:46:27.260Z,73.12
2022-08-05T09:47:25.683Z,73.12
2022-08-05T09:48:27.009Z,67.50
2022-08-05T09:49:40.271Z,45.00
2022-08-05T09:50:38.217Z,67.50
2022-08-05T09:51:26.629Z,67.50
2022-08-05T09:52:26.027Z,56.25
2022-08-05T09:53:25.999Z,56.25
2022-08-05T09:54:29.365Z,50.62
2022-08-05T09:55:56.506Z,45.00
2022-08-05T09:56:26.574Z,50.62
2022-08-05T09:57:25.570Z,45.00
2022-08-05T09:58:25.687Z,39.38
2022-08-05T09:59:27.767Z,45.00
2022-08-05T10:00:25.535Z,56.25
2022-08-05T10:01:32.257Z,67.50
2022-08-05T10:02:26.828Z,61.88
2022-08-05T10:03:25.518Z,67.50
2022-08-05T10:04:28.592Z,67.50
2022-08-05T10:05:26.779Z,73.12
2022-08-05T10:06:25.468Z,61.88
2022-08-05T10:08:10.433Z,50.62
2022-08-05T10:08:37.339Z,50.62
2022-08-05T10:09:29.355Z,33.75
2022-08-05T10:10:28.171Z,28.12
2022-08-05T10:11:31.270Z,39.38
2022-08-05T10:12:33.339Z,39.38
2022-08-05T10:13:26.405Z,45.00
2022-08-05T10:14:26.761Z,45.00
2022-08-05T10:15:25.826Z,61.88
2022-08-05T10:16:25.356Z,61.88
2022-08-05T10:17:38.078Z,73.12
2022-08-05T10:18:26.346Z,84.38
2022-08-05T10:20:03.032Z,73.12
2022-08-05T10:20:26.310Z,67.50
2022-08-05T10:21:25.308Z,67.50
2022-08-05T10:22:29.833Z,56.25
2022-08-05T10:23:56.195Z,67.50
2022-08-05T10:24:27.029Z,67.50
2022-08-05T10:25:25.255Z,61.88
2022-08-05T10:26:32.565Z,56.25
2022-08-05T10:28:09.576Z,61.88
2022-08-05T10:28:29.083Z,61.88
2022-08-05T10:30:41.842Z,61.88
2022-08-05T10:31:20.392Z,61.88
2022-08-05T10:32:53.761Z,61.88
2022-08-05T10:32:55.767Z,67.50
2022-08-05T10:33:28.796Z,73.12
2022-08-05T10:34:25.686Z,73.12
2022-08-05T10:35:40.391Z,78.75
2022-08-05T10:36:26.359Z,90.00
2022-08-05T10:37:26.694Z,101.25
2022-08-05T10:38:26.218Z,95.62
2022-08-05T10:39:59.301Z,90.00
2022-08-05T10:40:28.279Z,84.38
2022-08-05T10:41:25.069Z,73.12
2022-08-05T10:42:33.545Z,78.75
2022-08-05T10:43:31.098Z,84.38
2022-08-05T10:44:26.046Z,84.38
2022-08-05T10:45:40.164Z,84.38
2022-08-05T10:46:26.010Z,78.75
2022-08-05T10:47:26.497Z,61.88
2022-08-05T10:48:31.376Z,67.50
2022-08-05T10:49:27.112Z,90.00
2022-08-05T10:50:36.189Z,90.00
2022-08-05T10:51:29.313Z,106.88
2022-08-05T10:52:25.186Z,101.25
2022-08-05T10:53:24.951Z,90.00
2022-08-05T10:54:29.959Z,78.75
2022-08-05T10:55:25.920Z,78.75
2022-08-05T10:56:26.054Z,78.75
2022-08-05T10:57:24.895Z,78.75
2022-08-05T10:58:47.727Z,84.38
2022-08-05T11:00:04.150Z,84.38
2022-08-05T11:00:25.861Z,78.75
2022-08-05T11:01:28.525Z,84.38
2022-08-05T11:02:38.007Z,95.62
2022-08-05T11:03:26.865Z,95.62
2022-08-05T11:04:26.281Z,106.88
2022-08-05T11:05:28.834Z,112.50
2022-08-05T11:06:30.923Z,112.50
2022-08-05T11:07:33.316Z,123.75
2022-08-05T11:08:37.212Z,163.12
2022-08-05T11:09:45.087Z,202.50
2022-08-05T11:10:27.641Z,185.62
2022-08-05T11:11:24.740Z,191.25
2022-08-05T11:12:26.096Z,180.00
2022-08-05T11:13:24.723Z,168.75
2022-08-05T11:14:42.878Z,151.88
2022-08-05T11:15:44.047Z,129.38
2022-08-05T11:16:33.944Z,118.12
2022-08-05T11:17:59.952Z,123.75
2022-08-05T11:18:25.671Z,140.62
2022-08-05T11:20:10.007Z,174.38
2022-08-05T11:20:25.636Z,196.88
2022-08-05T11:21:24.628Z,213.75
2022-08-05T11:22:24.608Z,174.38
2022-08-05T11:23:25.335Z,196.88
2022-08-05T11:24:30.163Z,168.75
2022-08-05T11:26:06.035Z,140.62
2022-08-05T11:26:28.973Z,309.38
2022-08-05T11:27:25.828Z,247.50
2022-08-05T11:28:24.554Z,253.12
2022-08-05T11:29:24.532Z,247.50
2022-08-05T11:30:24.530Z,253.12
2022-08-05T11:31:56.930Z,247.50
2022-08-05T11:32:25.504Z,258.75
2022-08-05T11:33:24.498Z,270.00
2022-08-05T11:34:26.142Z,219.38
2022-08-05T11:35:24.471Z,157.50
2022-08-05T11:36:34.237Z,106.88
2022-08-05T11:38:29.217Z,95.62
2022-08-05T11:38:30.741Z,95.62
2022-08-05T11:39:25.465Z,101.25
2022-08-05T11:40:24.417Z,140.62
2022-08-05T11:41:54.469Z,185.62
2022-08-05T11:42:28.077Z,196.88
2022-08-05T11:44:00.722Z,219.38
2022-08-05T11:44:53.432Z,270.00
2022-08-05T11:46:27.547Z,236.25
2022-08-05T11:46:32.796Z,168.75
2022-08-05T11:47:48.815Z,180.00
2022-08-05T11:48:25.339Z,163.12
2022-08-05T11:49:24.317Z,168.75
2022-08-05T11:50:25.133Z,140.62
2022-08-05T11:51:43.715Z,151.88
2022-08-05T11:52:29.012Z,196.88
2022-08-05T11:53:24.290Z,230.62
2022-08-05T11:54:24.257Z,219.38
2022-08-05T11:55:31.725Z,247.50
2022-08-05T11:56:40.922Z,174.38
2022-08-05T11:57:39.360Z,202.50
2022-08-05T11:58:25.228Z,208.12
2022-08-05T11:59:24.196Z,202.50
2022-08-05T12:00:24.180Z,225.00
2022-08-05T12:01:24.175Z,202.50
2022-08-05T12:02:31.252Z,202.50
2022-08-05T12:03:31.639Z,247.50
2022-08-05T12:04:25.137Z,180.00
2022-08-05T12:05:28.852Z,236.25
2022-08-05T12:06:25.113Z,219.38
2022-08-05T12:08:08.028Z,174.38
2022-08-05T12:08:25.113Z,208.12
2022-08-05T12:09:24.091Z,118.12
2022-08-05T12:10:25.075Z,101.25
2022-08-05T12:11:28.244Z,168.75
2022-08-05T12:12:25.846Z,202.50
2022-08-05T12:13:47.616Z,230.62
2022-08-05T12:14:25.027Z,202.50
2022-08-05T12:15:35.727Z,185.62
2022-08-05T12:16:25.683Z,180.00
2022-08-05T12:18:03.375Z,185.62
2022-08-05T12:18:27.451Z,208.12
2022-08-05T12:20:26.718Z,236.25
2022-08-05T12:20:28.787Z,225.00
2022-08-05T12:21:24.949Z,151.88
2022-08-05T12:22:23.948Z,208.12
2022-08-05T12:23:23.948Z,146.25
2022-08-05T12:24:24.628Z,168.75
2022-08-05T12:25:28.217Z,146.25
2022-08-05T12:26:24.068Z,151.88
2022-08-05T12:27:25.300Z,168.75
2022-08-05T12:28:23.895Z,241.88
2022-08-05T12:29:24.862Z,174.38
2022-08-05T12:30:23.858Z,174.38
2022-08-05T12:31:33.544Z,140.62
2022-08-05T12:32:24.835Z,135.00
2022-08-05T12:33:27.297Z,225.00
2022-08-05T12:34:25.707Z,174.38
2022-08-05T12:35:24.746Z,208.12
2022-08-05T12:36:24.832Z,191.25
2022-08-05T12:37:23.827Z,191.25
2022-08-05T12:38:30.196Z,174.38
2022-08-05T12:39:34.348Z,191.25
2022-08-05T12:40:26.669Z,202.50
2022-08-05T12:41:23.742Z,129.38
2022-08-05T12:42:25.205Z,123.75
2022-08-05T12:43:23.731Z,118.12
2022-08-05T12:44:32.620Z,135.00
2022-08-05T12:45:42.549Z,247.50
2022-08-05T12:46:29.021Z,135.00
2022-08-05T12:47:24.811Z,112.50
2022-08-05T12:48:32.466Z,118.12
2022-08-05T12:49:25.632Z,106.88
2022-08-05T12:50:24.630Z,95.62
2022-08-05T12:52:13.900Z,106.88
2022-08-05T12:52:29.580Z,106.88
2022-08-05T12:53:24.610Z,95.62
2022-08-05T12:54:26.478Z,84.38
2022-08-05T12:55:25.431Z,78.75
2022-08-05T12:56:34.452Z,95.62
2022-08-05T12:57:24.825Z,135.00
2022-08-05T12:58:39.030Z,174.38
2022-08-05T12:59:27.522Z,202.50